Eleanor Marie — WDF390 — position and weather

sailwx.info

Track history (hours):
 
Tides and Currents Weather Stations Pressure Air Temp Water Temp Dewpoint Dewpoint Depression Visibility Wind Speed Wind Dir Waves Ship Positions

Eleanor Marie

Last reported at 2017-Nov-14 03:29 UTC. Time now 2018-Feb-20 15:17 UTC.
Position N 38°00' W 122°58'.
Warning: this ship's position is months out of date.

Type: Pleasure craft. MMSI: 367445430.

Date/timePositionNaut miles runAvg speedWind from/ knotsBaromVisibWave heightAir tempDewpointWater temp
2017-Nov-14 03:29N 38°00' W 122°58'0 0.0
2017-Nov-14 02:54N 38°00' W 122°58'1 3.5
2017-Nov-14 02:29N 37°59' W 122°59'3 6.7
2017-Nov-14 02:00N 37°59' W 123°03'2 3.3
2017-Nov-14 01:30N 38°01' W 123°03'3 5.5
2017-Nov-14 01:00N 38°03' W 123°01'3 6.9
2017-Nov-14 00:30N 38°07' W 123°02'3 7.0
2017-Nov-14 00:00N 38°10' W 123°03'3 6.6
2017-Nov-13 23:30N 38°13' W 123°04'3 6.0
2017-Nov-13 23:00N 38°16' W 123°03'3 5.3
2017-Nov-13 22:30N 38°19' W 123°03'1 1.4
2017-Nov-13 21:52N 38°20' W 123°03'0 0.0
2017-Nov-13 02:00N 38°20' W 123°03'0 0.1
2017-Nov-13 01:25N 38°20' W 123°03'0 0.0
2017-Nov-13 00:55N 38°20' W 123°03'0 0.0
2017-Nov-13 00:25N 38°20' W 123°03'0 0.0
2017-Nov-12 23:55N 38°20' W 123°03'0 0.0
2017-Nov-12 23:25N 38°20' W 123°03'0 0.0
2017-Nov-12 22:55N 38°20' W 123°03'0 0.0
2017-Nov-12 22:25N 38°20' W 123°03'0 0.0
2017-Nov-12 21:55N 38°20' W 123°03'0 0.0
2017-Nov-12 21:25N 38°20' W 123°03'0 0.0
2017-Nov-12 20:55N 38°20' W 123°03'0 0.0
2017-Nov-12 20:25N 38°20' W 123°03'0 0.0
2017-Nov-12 19:58N 38°20' W 123°03'0 0.0
2017-Nov-12 19:28N 38°20' W 123°03'0 0.0
2017-Nov-12 18:55N 38°20' W 123°03'0 0.0
2017-Nov-12 18:28N 38°20' W 123°03'0 0.0
2017-Nov-12 17:58N 38°20' W 123°03'0 0.0
2017-Nov-12 17:28N 38°20' W 123°03'0 0.0
2017-Nov-12 16:58N 38°20' W 123°03'0 0.0
2017-Nov-12 16:28N 38°20' W 123°03'0 0.0
2017-Nov-12 15:58N 38°20' W 123°03'0 0.0
2017-Nov-12 15:28N 38°20' W 123°03'0 0.0
2017-Nov-12 14:58N 38°20' W 123°03'0 0.0
2017-Nov-12 14:28N 38°20' W 123°03'0 0.0
2017-Nov-12 13:58N 38°20' W 123°03'0 0.0
2017-Nov-12 13:28N 38°20' W 123°03'0 0.0
2017-Nov-12 12:49N 38°20' W 123°03'0 0.0
2017-Nov-12 12:28N 38°20' W 123°03'0 0.0
2017-Nov-12 11:58N 38°20' W 123°03'0 0.0
2017-Nov-12 11:28N 38°20' W 123°03'0 0.0
2017-Nov-12 10:58N 38°20' W 123°03'0 0.0
2017-Nov-12 10:28N 38°20' W 123°03'0 0.0
2017-Nov-12 09:58N 38°20' W 123°03'0 0.0
2017-Nov-12 09:28N 38°20' W 123°03'0 0.0
2017-Nov-12 08:58N 38°20' W 123°03'0 0.0
2017-Nov-12 08:28N 38°20' W 123°03'0 0.0
2017-Nov-12 07:58N 38°20' W 123°03'0 0.0
2017-Nov-12 07:28N 38°20' W 123°03'0 0.0
2017-Nov-12 06:58N 38°20' W 123°03'0 0.0
2017-Nov-12 06:28N 38°20' W 123°03'0 0.0
2017-Nov-12 05:58N 38°20' W 123°03'0 0.0
2017-Nov-12 05:28N 38°20' W 123°03'0 0.0
2017-Nov-12 04:58N 38°20' W 123°03'0 0.0
2017-Nov-12 04:28N 38°20' W 123°03'0 0.0
2017-Nov-12 03:52N 38°20' W 123°03'0 0.0
2017-Nov-12 03:28N 38°20' W 123°03'0 0.0
2017-Nov-12 02:58N 38°20' W 123°03'0 0.0
2017-Nov-12 02:28N 38°20' W 123°03'0 0.0
2017-Nov-12 01:58N 38°20' W 123°03'0 0.0
2017-Nov-12 01:28N 38°20' W 123°03'0 0.0
2017-Nov-12 00:58N 38°20' W 123°03'0 0.0
2017-Nov-12 00:28N 38°20' W 123°03'0 0.0
2017-Nov-11 23:58N 38°20' W 123°03'0 0.0
2017-Nov-11 23:28N 38°20' W 123°03'0 0.0
2017-Nov-11 22:58N 38°20' W 123°03'0 0.0
2017-Nov-11 22:25N 38°20' W 123°03'0 0.0
2017-Nov-11 21:58N 38°20' W 123°03'0 0.0
2017-Nov-11 21:28N 38°20' W 123°03'0 0.0
2017-Nov-11 20:58N 38°20' W 123°03'0 0.0
2017-Nov-11 20:28N 38°20' W 123°03'0 0.0
2017-Nov-11 19:58N 38°20' W 123°03'0 0.0
2017-Nov-11 19:28N 38°20' W 123°03'0 0.0
2017-Nov-11 18:58N 38°20' W 123°03'0 0.0
2017-Nov-11 18:22N 38°20' W 123°03'0 0.0
2017-Nov-11 17:58N 38°20' W 123°03'0 0.0
2017-Nov-11 17:28N 38°20' W 123°03'0 0.0
2017-Nov-11 16:58N 38°20' W 123°03'0 0.0
2017-Nov-11 16:22N 38°20' W 123°03'0 0.0
2017-Nov-11 15:58N 38°20' W 123°03'0 0.0
2017-Nov-11 15:22N 38°20' W 123°03'0 0.0
2017-Nov-11 14:58N 38°20' W 123°03'0 0.0
2017-Nov-11 14:28N 38°20' W 123°03'0 0.0
2017-Nov-11 13:52N 38°20' W 123°03'0 0.0
2017-Nov-11 13:22N 38°20' W 123°03'0 0.0
2017-Nov-11 12:58N 38°20' W 123°03'0 0.0
2017-Nov-11 12:25N 38°20' W 123°03'0 0.0
2017-Nov-11 11:58N 38°20' W 123°03'0 0.0
2017-Nov-11 11:22N 38°20' W 123°03'0 0.0
2017-Nov-11 10:52N 38°20' W 123°03'0 0.0
2017-Nov-11 10:28N 38°20' W 123°03'0 0.0
2017-Nov-11 09:58N 38°20' W 123°03'0 0.0
2017-Nov-11 09:28N 38°20' W 123°03'0 0.0
2017-Nov-11 08:58N 38°20' W 123°03'0 0.0
2017-Nov-11 08:22N 38°20' W 123°03'0 0.0
2017-Nov-11 07:58N 38°20' W 123°03'0 0.0
2017-Nov-11 07:28N 38°20' W 123°03'0 0.0
2017-Nov-11 06:58N 38°20' W 123°03'0 0.0
2017-Nov-11 06:22N 38°20' W 123°03'0 0.0
2017-Nov-11 03:16N 38°20' W 123°03'0 0.0
2017-Nov-11 02:58N 38°20' W 123°03'0 0.0
2017-Nov-11 01:31N 38°20' W 123°03'0 0.0
2017-Nov-11 01:25N 38°20' W 123°03'0 0.0
2017-Nov-11 00:22N 38°20' W 123°03'0 0.0
2017-Nov-10 22:55N 38°20' W 123°03'0 0.0
2017-Nov-10 22:13N 38°20' W 123°03'0 0.0
2017-Nov-10 21:46N 38°20' W 123°03'0 0.0
2017-Nov-10 20:28N 38°20' W 123°03'0 0.0
2017-Nov-10 19:49N 38°20' W 123°03'0 0.0
2017-Nov-10 19:28N 38°20' W 123°03'0 0.0
2017-Nov-10 18:46N 38°20' W 123°03'0 0.0
2017-Nov-10 18:22N 38°20' W 123°03'0 0.0
2017-Nov-10 17:58N 38°20' W 123°03'0 0.0
2017-Nov-10 17:28N 38°20' W 123°03'0 0.0
2017-Nov-10 16:58N 38°20' W 123°03'0 0.0
2017-Nov-10 16:10N 38°20' W 123°03'0 0.0
2017-Nov-10 15:37N 38°20' W 123°03'0 0.0
2017-Nov-10 15:07N 38°20' W 123°03'0 0.0
2017-Nov-10 14:58N 38°20' W 123°03'0 0.0
2017-Nov-10 14:28N 38°20' W 123°03'0 0.0
2017-Nov-10 13:58N 38°20' W 123°03'0 0.0
2017-Nov-10 13:22N 38°20' W 123°03'0 0.0
2017-Nov-10 12:58N 38°20' W 123°03'0 0.0
2017-Nov-10 12:28N 38°20' W 123°03'0 0.0
2017-Nov-10 11:58N 38°20' W 123°03'0 0.0
2017-Nov-10 11:28N 38°20' W 123°03'0 0.0
2017-Nov-10 10:58N 38°20' W 123°03'0 0.0
2017-Nov-10 10:22N 38°20' W 123°03'0 0.0
2017-Nov-10 09:52N 38°20' W 123°03'0 0.0
2017-Nov-10 09:28N 38°20' W 123°03'0 0.0
2017-Nov-10 08:58N 38°20' W 123°03'0 0.0
2017-Nov-10 08:28N 38°20' W 123°03'0 0.0
2017-Nov-10 07:55N 38°20' W 123°03'0 0.0
2017-Nov-10 07:25N 38°20' W 123°03'0 0.0
2017-Nov-10 06:55N 38°20' W 123°03'0 0.0
2017-Nov-10 06:25N 38°20' W 123°03'0 0.0
2017-Nov-10 05:55N 38°20' W 123°03'0 0.0
2017-Nov-10 05:25N 38°20' W 123°03'0 0.0
2017-Nov-10 04:49N 38°20' W 123°03'0 0.0
2017-Nov-10 04:25N 38°20' W 123°03'0 0.0
2017-Nov-10 03:43N 38°20' W 123°03'0 0.0
2017-Nov-10 03:25N 38°20' W 123°03'0 0.0
2017-Nov-10 02:55N 38°20' W 123°03'0 0.0
2017-Nov-10 02:25N 38°20' W 123°03'0 0.0
2017-Nov-10 01:55N 38°20' W 123°03'0 0.0
2017-Nov-10 01:25N 38°20' W 123°03'0 0.0
2017-Nov-10 00:52N 38°20' W 123°03'0 0.0
2017-Nov-10 00:28N 38°20' W 123°03'0 0.0
2017-Nov-09 23:58N 38°20' W 123°03'0 0.0
2017-Nov-09 23:25N 38°20' W 123°03'0 0.0
2017-Nov-09 22:58N 38°20' W 123°03'0 0.0
2017-Nov-09 22:28N 38°20' W 123°03'0 0.0
2017-Nov-09 21:58N 38°20' W 123°03'0 0.0
2017-Nov-09 21:28N 38°20' W 123°03'0 0.0
2017-Nov-09 20:58N 38°20' W 123°03'0 0.0
2017-Nov-09 20:28N 38°20' W 123°03'0 0.0
2017-Nov-09 19:58N 38°20' W 123°03'0 0.0
2017-Nov-09 19:28N 38°20' W 123°03'0 0.0
2017-Nov-09 18:58N 38°20' W 123°03'0 0.0
2017-Nov-09 18:28N 38°20' W 123°03'0 0.0
2017-Nov-09 17:58N 38°20' W 123°03'0 0.0
2017-Nov-09 17:28N 38°20' W 123°03'0 0.0
2017-Nov-09 16:58N 38°20' W 123°03'0 0.0
2017-Nov-09 16:22N 38°20' W 123°03'0 0.0
2017-Nov-09 15:58N 38°20' W 123°03'0 0.0
2017-Nov-09 15:28N 38°20' W 123°03'0 0.0
2017-Nov-09 14:58N 38°20' W 123°03'0 0.0
2017-Nov-09 14:25N 38°20' W 123°03'0 0.0
2017-Nov-09 13:58N 38°20' W 123°03'0 0.0
2017-Nov-09 13:28N 38°20' W 123°03'0 0.0
2017-Nov-09 12:55N 38°20' W 123°03'0 0.0
2017-Nov-09 12:25N 38°20' W 123°03'0 0.0
2017-Nov-09 11:55N 38°20' W 123°03'0 0.0
2017-Nov-09 11:25N 38°20' W 123°03'0 0.0
2017-Nov-09 10:55N 38°20' W 123°03'0 0.0
2017-Nov-09 10:25N 38°20' W 123°03'0 0.0
2017-Nov-09 09:58N 38°20' W 123°03'0 0.0
2017-Nov-09 09:28N 38°20' W 123°03'0 0.0
2017-Nov-09 08:58N 38°20' W 123°03'0 0.0
2017-Nov-09 08:28N 38°20' W 123°03'0 0.0
2017-Nov-09 07:58N 38°20' W 123°03'0 0.0
2017-Nov-09 07:28N 38°20' W 123°03'0 0.0
2017-Nov-09 06:55N 38°20' W 123°03'0 0.0
2017-Nov-09 06:28N 38°20' W 123°03'0 0.0
2017-Nov-09 05:58N 38°20' W 123°03'0 0.0
2017-Nov-09 05:28N 38°20' W 123°03'0 0.0
2017-Nov-09 04:58N 38°20' W 123°03'0 0.0
2017-Nov-09 04:25N 38°20' W 123°03'0 0.0
2017-Nov-09 03:55N 38°20' W 123°03'0 0.0
2017-Nov-09 03:19N 38°20' W 123°03'0 0.0
2017-Nov-09 02:49N 38°20' W 123°03'0 0.0
2017-Nov-09 02:25N 38°20' W 123°03'0 0.0
2017-Nov-09 01:43N 38°20' W 123°03'0 0.0
2017-Nov-09 01:19N 38°20' W 123°03'0 0.0
2017-Nov-09 00:31N 38°20' W 123°03'0 0.0
2017-Nov-09 00:19N 38°20' W 123°03'0 0.0
2017-Nov-08 23:40N 38°20' W 123°03'0 0.0
2017-Nov-08 23:28N 38°20' W 123°03'0 0.0
2017-Nov-08 22:55N 38°20' W 123°03'0 0.0
2017-Nov-08 22:25N 38°20' W 123°03'0 0.0
2017-Nov-08 21:49N 38°20' W 123°03'0 0.0
2017-Nov-08 21:19N 38°20' W 123°03'0 0.0
2017-Nov-08 20:55N 38°20' W 123°03'0 0.0
2017-Nov-08 20:29N 38°20' W 123°03'0 0.0
2017-Nov-08 19:59N 38°20' W 123°03'0 0.0
2017-Nov-08 19:23N 38°20' W 123°03'0 0.0
2017-Nov-08 18:47N 38°20' W 123°03'0 0.2
2017-Nov-08 18:27N 38°20' W 123°03'0 0.0
2017-Nov-08 17:57N 38°20' W 123°03'0 0.0
2017-Nov-08 17:27N 38°20' W 123°03'0 0.0
2017-Nov-08 16:57N 38°20' W 123°03'0 0.1
2017-Nov-08 16:29N 38°20' W 123°03'0 0.0
2017-Nov-08 15:59N 38°20' W 123°03'0 0.0
2017-Nov-08 15:29N 38°20' W 123°03'0 0.0
2017-Nov-08 14:59N 38°20' W 123°03'0 0.0
2017-Nov-08 14:29N 38°20' W 123°03'0 0.0
2017-Nov-08 13:59N 38°20' W 123°03'0 0.0
2017-Nov-08 13:29N 38°20' W 123°03'0 0.0
2017-Nov-08 12:59N 38°20' W 123°03'0 0.0
2017-Nov-08 12:29N 38°20' W 123°03'0 0.0
2017-Nov-08 11:59N 38°20' W 123°03'0 0.0
2017-Nov-08 11:29N 38°20' W 123°03'0 0.0
2017-Nov-08 10:59N 38°20' W 123°03'0 0.0
2017-Nov-08 10:29N 38°20' W 123°03'0 0.0
2017-Nov-08 09:59N 38°20' W 123°03'0 0.0
2017-Nov-08 09:29N 38°20' W 123°03'0 0.0
2017-Nov-08 08:53N 38°20' W 123°03'0 0.0
2017-Nov-08 08:23N 38°20' W 123°03'0 0.0
2017-Nov-08 07:59N 38°20' W 123°03'0 0.0
2017-Nov-08 07:29N 38°20' W 123°03'0 0.0
2017-Nov-08 06:59N 38°20' W 123°03'0 0.0
2017-Nov-08 06:29N 38°20' W 123°03'0 0.0
2017-Nov-08 05:59N 38°20' W 123°03'0 0.0
2017-Nov-08 05:29N 38°20' W 123°03'0 0.0
2017-Nov-08 04:59N 38°20' W 123°03'0 0.0
2017-Nov-08 04:29N 38°20' W 123°03'0 0.0
2017-Nov-08 03:59N 38°20' W 123°03'0 0.0
2017-Nov-08 03:29N 38°20' W 123°03'0 0.0
2017-Nov-08 02:59N 38°20' W 123°03'0 0.0
2017-Nov-08 02:29N 38°20' W 123°03'0 0.0
2017-Nov-08 01:59N 38°20' W 123°03'0 0.0
2017-Nov-08 01:29N 38°20' W 123°03'0 0.0
2017-Nov-08 00:59N 38°20' W 123°03'0 0.0
2017-Nov-08 00:23N 38°20' W 123°03'0 0.0
2017-Nov-07 23:59N 38°20' W 123°03'0 0.0
2017-Nov-07 23:23N 38°20' W 123°03'0 0.0
2017-Nov-07 22:53N 38°20' W 123°03'0 0.0
2017-Nov-07 22:23N 38°20' W 123°03'0 0.0
2017-Nov-07 21:59N 38°20' W 123°03'0 0.0
2017-Nov-07 21:29N 38°20' W 123°03'0 0.0
2017-Nov-07 20:59N 38°20' W 123°03'0 0.0
2017-Nov-07 20:29N 38°20' W 123°03'0 0.0
2017-Nov-07 19:59N 38°20' W 123°03'0 0.0
2017-Nov-07 19:29N 38°20' W 123°03'0 0.0
2017-Nov-07 18:59N 38°20' W 123°03'0 0.0
2017-Nov-07 18:29N 38°20' W 123°03'0 0.0
2017-Nov-07 17:59N 38°20' W 123°03'0 0.0
2017-Nov-07 17:29N 38°20' W 123°03'0 0.0
2017-Nov-07 16:59N 38°20' W 123°03'0 0.0
2017-Nov-07 16:29N 38°20' W 123°03'0 0.0
2017-Nov-07 15:59N 38°20' W 123°03'0 0.0
2017-Nov-07 15:23N 38°20' W 123°03'0 0.0
2017-Nov-07 14:59N 38°20' W 123°03'0 0.0
2017-Nov-07 14:23N 38°20' W 123°03'0 0.0
2017-Nov-07 13:53N 38°20' W 123°03'0 0.0
2017-Nov-07 13:17N 38°20' W 123°03'0 0.0
2017-Nov-07 12:59N 38°20' W 123°03'0 0.0
2017-Nov-07 12:29N 38°20' W 123°03'0 0.0
2017-Nov-07 11:59N 38°20' W 123°03'0 0.0
2017-Nov-07 11:23N 38°20' W 123°03'0 0.0
2017-Nov-07 10:59N 38°20' W 123°03'0 0.0
2017-Nov-07 10:29N 38°20' W 123°03'0 0.0
2017-Nov-07 09:41N 38°20' W 123°03'0 0.0
2017-Nov-07 09:29N 38°20' W 123°03'0 0.0
2017-Nov-07 08:59N 38°20' W 123°03'0 0.0
2017-Nov-07 08:23N 38°20' W 123°03'0 0.0
2017-Nov-07 07:59N 38°20' W 123°03'0 0.0
2017-Nov-07 07:23N 38°20' W 123°03'0 0.0
2017-Nov-07 06:59N 38°20' W 123°03'0 0.0
2017-Nov-07 06:29N 38°20' W 123°03'0 0.0
2017-Nov-07 05:59N 38°20' W 123°03'0 0.0
2017-Nov-07 05:29N 38°20' W 123°03'0 0.0
2017-Nov-07 04:59N 38°20' W 123°03'0 0.0
2017-Nov-07 04:29N 38°20' W 123°03'0 0.0
2017-Nov-07 03:59N 38°20' W 123°03'0 0.0
2017-Nov-07 03:29N 38°20' W 123°03'0 0.0
2017-Nov-07 02:56N 38°20' W 123°03'0 0.0
2017-Nov-07 02:26N 38°20' W 123°03'0 0.0
2017-Nov-07 01:56N 38°20' W 123°03'0 0.0
2017-Nov-07 01:20N 38°20' W 123°03'0 0.0
2017-Nov-07 00:59N 38°20' W 123°03'0 0.0
2017-Nov-07 00:23N 38°20' W 123°03'0 0.0
2017-Nov-06 23:59N 38°20' W 123°03'0 0.0
2017-Nov-06 23:23N 38°20' W 123°03'0 0.0
2017-Nov-06 22:53N 38°20' W 123°03'0 0.0
2017-Nov-06 22:29N 38°20' W 123°03'0 0.0
2017-Nov-06 21:56N 38°20' W 123°03'0 0.0
2017-Nov-06 21:26N 38°20' W 123°03'0 0.0
2017-Nov-06 20:53N 38°20' W 123°03'0 0.0
2017-Nov-06 20:14N 38°20' W 123°03'  
Track history (hours):
 
Tides and Currents Weather Stations Pressure Air Temp Water Temp Dewpoint Dewpoint Depression Visibility Wind Speed Wind Dir Waves Ship Positions

Eleanor Marie

Last reported at 2017-Nov-14 03:29 UTC. Time now 2018-Feb-20 15:17 UTC.
Position N 38°00' W 122°58'.
Warning: this ship's position is months out of date.

Type: Pleasure craft. MMSI: 367445430.

Date/timePositionNaut miles runAvg speedWind from/ knotsBaromVisibWave heightAir tempDewpointWater temp
2017-Nov-14 03:29N 38°00' W 122°58'0 0.0
2017-Nov-14 02:54N 38°00' W 122°58'1 3.5
2017-Nov-14 02:29N 37°59' W 122°59'3 6.7
2017-Nov-14 02:00N 37°59' W 123°03'2 3.3
2017-Nov-14 01:30N 38°01' W 123°03'3 5.5
2017-Nov-14 01:00N 38°03' W 123°01'3 6.9
2017-Nov-14 00:30N 38°07' W 123°02'3 7.0
2017-Nov-14 00:00N 38°10' W 123°03'3 6.6
2017-Nov-13 23:30N 38°13' W 123°04'3 6.0
2017-Nov-13 23:00N 38°16' W 123°03'3 5.3
2017-Nov-13 22:30N 38°19' W 123°03'1 1.4
2017-Nov-13 21:52N 38°20' W 123°03'0 0.0
2017-Nov-13 02:00N 38°20' W 123°03'0 0.1
2017-Nov-13 01:25N 38°20' W 123°03'0 0.0
2017-Nov-13 00:55N 38°20' W 123°03'0 0.0
2017-Nov-13 00:25N 38°20' W 123°03'0 0.0
2017-Nov-12 23:55N 38°20' W 123°03'0 0.0
2017-Nov-12 23:25N 38°20' W 123°03'0 0.0
2017-Nov-12 22:55N 38°20' W 123°03'0 0.0
2017-Nov-12 22:25N 38°20' W 123°03'0 0.0
2017-Nov-12 21:55N 38°20' W 123°03'0 0.0
2017-Nov-12 21:25N 38°20' W 123°03'0 0.0
2017-Nov-12 20:55N 38°20' W 123°03'0 0.0
2017-Nov-12 20:25N 38°20' W 123°03'0 0.0
2017-Nov-12 19:58N 38°20' W 123°03'0 0.0
2017-Nov-12 19:28N 38°20' W 123°03'0 0.0
2017-Nov-12 18:55N 38°20' W 123°03'0 0.0
2017-Nov-12 18:28N 38°20' W 123°03'0 0.0
2017-Nov-12 17:58N 38°20' W 123°03'0 0.0
2017-Nov-12 17:28N 38°20' W 123°03'0 0.0
2017-Nov-12 16:58N 38°20' W 123°03'0 0.0
2017-Nov-12 16:28N 38°20' W 123°03'0 0.0
2017-Nov-12 15:58N 38°20' W 123°03'0 0.0
2017-Nov-12 15:28N 38°20' W 123°03'0 0.0
2017-Nov-12 14:58N 38°20' W 123°03'0 0.0
2017-Nov-12 14:28N 38°20' W 123°03'0 0.0
2017-Nov-12 13:58N 38°20' W 123°03'0 0.0
2017-Nov-12 13:28N 38°20' W 123°03'0 0.0
2017-Nov-12 12:49N 38°20' W 123°03'0 0.0
2017-Nov-12 12:28N 38°20' W 123°03'0 0.0
2017-Nov-12 11:58N 38°20' W 123°03'0 0.0
2017-Nov-12 11:28N 38°20' W 123°03'0 0.0
2017-Nov-12 10:58N 38°20' W 123°03'0 0.0
2017-Nov-12 10:28N 38°20' W 123°03'0 0.0
2017-Nov-12 09:58N 38°20' W 123°03'0 0.0
2017-Nov-12 09:28N 38°20' W 123°03'0 0.0
2017-Nov-12 08:58N 38°20' W 123°03'0 0.0
2017-Nov-12 08:28N 38°20' W 123°03'0 0.0
2017-Nov-12 07:58N 38°20' W 123°03'0 0.0
2017-Nov-12 07:28N 38°20' W 123°03'0 0.0
2017-Nov-12 06:58N 38°20' W 123°03'0 0.0
2017-Nov-12 06:28N 38°20' W 123°03'0 0.0
2017-Nov-12 05:58N 38°20' W 123°03'0 0.0
2017-Nov-12 05:28N 38°20' W 123°03'0 0.0
2017-Nov-12 04:58N 38°20' W 123°03'0 0.0
2017-Nov-12 04:28N 38°20' W 123°03'0 0.0
2017-Nov-12 03:52N 38°20' W 123°03'0 0.0
2017-Nov-12 03:28N 38°20' W 123°03'0 0.0
2017-Nov-12 02:58N 38°20' W 123°03'0 0.0
2017-Nov-12 02:28N 38°20' W 123°03'0 0.0
2017-Nov-12 01:58N 38°20' W 123°03'0 0.0
2017-Nov-12 01:28N 38°20' W 123°03'0 0.0
2017-Nov-12 00:58N 38°20' W 123°03'0 0.0
2017-Nov-12 00:28N 38°20' W 123°03'0 0.0
2017-Nov-11 23:58N 38°20' W 123°03'0 0.0
2017-Nov-11 23:28N 38°20' W 123°03'0 0.0
2017-Nov-11 22:58N 38°20' W 123°03'0 0.0
2017-Nov-11 22:25N 38°20' W 123°03'0 0.0
2017-Nov-11 21:58N 38°20' W 123°03'0 0.0
2017-Nov-11 21:28N 38°20' W 123°03'0 0.0
2017-Nov-11 20:58N 38°20' W 123°03'0 0.0
2017-Nov-11 20:28N 38°20' W 123°03'0 0.0
2017-Nov-11 19:58N 38°20' W 123°03'0 0.0
2017-Nov-11 19:28N 38°20' W 123°03'0 0.0
2017-Nov-11 18:58N 38°20' W 123°03'0 0.0
2017-Nov-11 18:22N 38°20' W 123°03'0 0.0
2017-Nov-11 17:58N 38°20' W 123°03'0 0.0
2017-Nov-11 17:28N 38°20' W 123°03'0 0.0
2017-Nov-11 16:58N 38°20' W 123°03'0 0.0
2017-Nov-11 16:22N 38°20' W 123°03'0 0.0
2017-Nov-11 15:58N 38°20' W 123°03'0 0.0
2017-Nov-11 15:22N 38°20' W 123°03'0 0.0
2017-Nov-11 14:58N 38°20' W 123°03'0 0.0
2017-Nov-11 14:28N 38°20' W 123°03'0 0.0
2017-Nov-11 13:52N 38°20' W 123°03'0 0.0
2017-Nov-11 13:22N 38°20' W 123°03'0 0.0
2017-Nov-11 12:58N 38°20' W 123°03'0 0.0
2017-Nov-11 12:25N 38°20' W 123°03'0 0.0
2017-Nov-11 11:58N 38°20' W 123°03'0 0.0
2017-Nov-11 11:22N 38°20' W 123°03'0 0.0
2017-Nov-11 10:52N 38°20' W 123°03'0 0.0
2017-Nov-11 10:28N 38°20' W 123°03'0 0.0
2017-Nov-11 09:58N 38°20' W 123°03'0 0.0
2017-Nov-11 09:28N 38°20' W 123°03'0 0.0
2017-Nov-11 08:58N 38°20' W 123°03'0 0.0
2017-Nov-11 08:22N 38°20' W 123°03'0 0.0
2017-Nov-11 07:58N 38°20' W 123°03'0 0.0
2017-Nov-11 07:28N 38°20' W 123°03'0 0.0
2017-Nov-11 06:58N 38°20' W 123°03'0 0.0
2017-Nov-11 06:22N 38°20' W 123°03'0 0.0
2017-Nov-11 03:16N 38°20' W 123°03'0 0.0
2017-Nov-11 02:58N 38°20' W 123°03'0 0.0
2017-Nov-11 01:31N 38°20' W 123°03'0 0.0
2017-Nov-11 01:25N 38°20' W 123°03'0 0.0
2017-Nov-11 00:22N 38°20' W 123°03'0 0.0
2017-Nov-10 22:55N 38°20' W 123°03'0 0.0
2017-Nov-10 22:13N 38°20' W 123°03'0 0.0
2017-Nov-10 21:46N 38°20' W 123°03'0 0.0
2017-Nov-10 20:28N 38°20' W 123°03'0 0.0
2017-Nov-10 19:49N 38°20' W 123°03'0 0.0
2017-Nov-10 19:28N 38°20' W 123°03'0 0.0
2017-Nov-10 18:46N 38°20' W 123°03'0 0.0
2017-Nov-10 18:22N 38°20' W 123°03'0 0.0
2017-Nov-10 17:58N 38°20' W 123°03'0 0.0
2017-Nov-10 17:28N 38°20' W 123°03'0 0.0
2017-Nov-10 16:58N 38°20' W 123°03'0 0.0
2017-Nov-10 16:10N 38°20' W 123°03'0 0.0
2017-Nov-10 15:37N 38°20' W 123°03'0 0.0
2017-Nov-10 15:07N 38°20' W 123°03'0 0.0
2017-Nov-10 14:58N 38°20' W 123°03'0 0.0
2017-Nov-10 14:28N 38°20' W 123°03'0 0.0
2017-Nov-10 13:58N 38°20' W 123°03'0 0.0
2017-Nov-10 13:22N 38°20' W 123°03'0 0.0
2017-Nov-10 12:58N 38°20' W 123°03'0 0.0
2017-Nov-10 12:28N 38°20' W 123°03'0 0.0
2017-Nov-10 11:58N 38°20' W 123°03'0 0.0
2017-Nov-10 11:28N 38°20' W 123°03'0 0.0
2017-Nov-10 10:58N 38°20' W 123°03'0 0.0
2017-Nov-10 10:22N 38°20' W 123°03'0 0.0
2017-Nov-10 09:52N 38°20' W 123°03'0 0.0
2017-Nov-10 09:28N 38°20' W 123°03'0 0.0
2017-Nov-10 08:58N 38°20' W 123°03'0 0.0
2017-Nov-10 08:28N 38°20' W 123°03'0 0.0
2017-Nov-10 07:55N 38°20' W 123°03'0 0.0
2017-Nov-10 07:25N 38°20' W 123°03'0 0.0
2017-Nov-10 06:55N 38°20' W 123°03'0 0.0
2017-Nov-10 06:25N 38°20' W 123°03'0 0.0
2017-Nov-10 05:55N 38°20' W 123°03'0 0.0
2017-Nov-10 05:25N 38°20' W 123°03'0 0.0
2017-Nov-10 04:49N 38°20' W 123°03'0 0.0
2017-Nov-10 04:25N 38°20' W 123°03'0 0.0
2017-Nov-10 03:43N 38°20' W 123°03'0 0.0
2017-Nov-10 03:25N 38°20' W 123°03'0 0.0
2017-Nov-10 02:55N 38°20' W 123°03'0 0.0
2017-Nov-10 02:25N 38°20' W 123°03'0 0.0
2017-Nov-10 01:55N 38°20' W 123°03'0 0.0
2017-Nov-10 01:25N 38°20' W 123°03'0 0.0
2017-Nov-10 00:52N 38°20' W 123°03'0 0.0
2017-Nov-10 00:28N 38°20' W 123°03'0 0.0
2017-Nov-09 23:58N 38°20' W 123°03'0 0.0
2017-Nov-09 23:25N 38°20' W 123°03'0 0.0
2017-Nov-09 22:58N 38°20' W 123°03'0 0.0
2017-Nov-09 22:28N 38°20' W 123°03'0 0.0
2017-Nov-09 21:58N 38°20' W 123°03'0 0.0
2017-Nov-09 21:28N 38°20' W 123°03'0 0.0
2017-Nov-09 20:58N 38°20' W 123°03'0 0.0
2017-Nov-09 20:28N 38°20' W 123°03'0 0.0
2017-Nov-09 19:58N 38°20' W 123°03'0 0.0
2017-Nov-09 19:28N 38°20' W 123°03'0 0.0
2017-Nov-09 18:58N 38°20' W 123°03'0 0.0
2017-Nov-09 18:28N 38°20' W 123°03'0 0.0
2017-Nov-09 17:58N 38°20' W 123°03'0 0.0
2017-Nov-09 17:28N 38°20' W 123°03'0 0.0
2017-Nov-09 16:58N 38°20' W 123°03'0 0.0
2017-Nov-09 16:22N 38°20' W 123°03'0 0.0
2017-Nov-09 15:58N 38°20' W 123°03'0 0.0
2017-Nov-09 15:28N 38°20' W 123°03'0 0.0
2017-Nov-09 14:58N 38°20' W 123°03'0 0.0
2017-Nov-09 14:25N 38°20' W 123°03'0 0.0
2017-Nov-09 13:58N 38°20' W 123°03'0 0.0
2017-Nov-09 13:28N 38°20' W 123°03'0 0.0
2017-Nov-09 12:55N 38°20' W 123°03'0 0.0
2017-Nov-09 12:25N 38°20' W 123°03'0 0.0
2017-Nov-09 11:55N 38°20' W 123°03'0 0.0
2017-Nov-09 11:25N 38°20' W 123°03'0 0.0
2017-Nov-09 10:55N 38°20' W 123°03'0 0.0
2017-Nov-09 10:25N 38°20' W 123°03'0 0.0
2017-Nov-09 09:58N 38°20' W 123°03'0 0.0
2017-Nov-09 09:28N 38°20' W 123°03'0 0.0
2017-Nov-09 08:58N 38°20' W 123°03'0 0.0
2017-Nov-09 08:28N 38°20' W 123°03'0 0.0
2017-Nov-09 07:58N 38°20' W 123°03'0 0.0
2017-Nov-09 07:28N 38°20' W 123°03'0 0.0
2017-Nov-09 06:55N 38°20' W 123°03'0 0.0
2017-Nov-09 06:28N 38°20' W 123°03'0 0.0
2017-Nov-09 05:58N 38°20' W 123°03'0 0.0
2017-Nov-09 05:28N 38°20' W 123°03'0 0.0
2017-Nov-09 04:58N 38°20' W 123°03'0 0.0
2017-Nov-09 04:25N 38°20' W 123°03'0 0.0
2017-Nov-09 03:55N 38°20' W 123°03'0 0.0
2017-Nov-09 03:19N 38°20' W 123°03'0 0.0
2017-Nov-09 02:49N 38°20' W 123°03'0 0.0
2017-Nov-09 02:25N 38°20' W 123°03'0 0.0
2017-Nov-09 01:43N 38°20' W 123°03'0 0.0
2017-Nov-09 01:19N 38°20' W 123°03'0 0.0
2017-Nov-09 00:31N 38°20' W 123°03'0 0.0
2017-Nov-09 00:19N 38°20' W 123°03'0 0.0
2017-Nov-08 23:40N 38°20' W 123°03'0 0.0
2017-Nov-08 23:28N 38°20' W 123°03'0 0.0
2017-Nov-08 22:55N 38°20' W 123°03'0 0.0
2017-Nov-08 22:25N 38°20' W 123°03'0 0.0
2017-Nov-08 21:49N 38°20' W 123°03'0 0.0
2017-Nov-08 21:19N 38°20' W 123°03'0 0.0
2017-Nov-08 20:55N 38°20' W 123°03'0 0.0
2017-Nov-08 20:29N 38°20' W 123°03'0 0.0
2017-Nov-08 19:59N 38°20' W 123°03'0 0.0
2017-Nov-08 19:23N 38°20' W 123°03'0 0.0
2017-Nov-08 18:47N 38°20' W 123°03'0 0.2
2017-Nov-08 18:27N 38°20' W 123°03'0 0.0
2017-Nov-08 17:57N 38°20' W 123°03'0 0.0
2017-Nov-08 17:27N 38°20' W 123°03'0 0.0
2017-Nov-08 16:57N 38°20' W 123°03'0 0.1
2017-Nov-08 16:29N 38°20' W 123°03'0 0.0
2017-Nov-08 15:59N 38°20' W 123°03'0 0.0
2017-Nov-08 15:29N 38°20' W 123°03'0 0.0
2017-Nov-08 14:59N 38°20' W 123°03'0 0.0
2017-Nov-08 14:29N 38°20' W 123°03'0 0.0
2017-Nov-08 13:59N 38°20' W 123°03'0 0.0
2017-Nov-08 13:29N 38°20' W 123°03'0 0.0
2017-Nov-08 12:59N 38°20' W 123°03'0 0.0
2017-Nov-08 12:29N 38°20' W 123°03'0 0.0
2017-Nov-08 11:59N 38°20' W 123°03'0 0.0
2017-Nov-08 11:29N 38°20' W 123°03'0 0.0
2017-Nov-08 10:59N 38°20' W 123°03'0 0.0
2017-Nov-08 10:29N 38°20' W 123°03'0 0.0
2017-Nov-08 09:59N 38°20' W 123°03'0 0.0
2017-Nov-08 09:29N 38°20' W 123°03'0 0.0
2017-Nov-08 08:53N 38°20' W 123°03'0 0.0
2017-Nov-08 08:23N 38°20' W 123°03'0 0.0
2017-Nov-08 07:59N 38°20' W 123°03'0 0.0
2017-Nov-08 07:29N 38°20' W 123°03'0 0.0
2017-Nov-08 06:59N 38°20' W 123°03'0 0.0
2017-Nov-08 06:29N 38°20' W 123°03'0 0.0
2017-Nov-08 05:59N 38°20' W 123°03'0 0.0
2017-Nov-08 05:29N 38°20' W 123°03'0 0.0
2017-Nov-08 04:59N 38°20' W 123°03'0 0.0
2017-Nov-08 04:29N 38°20' W 123°03'0 0.0
2017-Nov-08 03:59N 38°20' W 123°03'0 0.0
2017-Nov-08 03:29N 38°20' W 123°03'0 0.0
2017-Nov-08 02:59N 38°20' W 123°03'0 0.0
2017-Nov-08 02:29N 38°20' W 123°03'0 0.0
2017-Nov-08 01:59N 38°20' W 123°03'0 0.0
2017-Nov-08 01:29N 38°20' W 123°03'0 0.0
2017-Nov-08 00:59N 38°20' W 123°03'0 0.0
2017-Nov-08 00:23N 38°20' W 123°03'0 0.0
2017-Nov-07 23:59N 38°20' W 123°03'0 0.0
2017-Nov-07 23:23N 38°20' W 123°03'0 0.0
2017-Nov-07 22:53N 38°20' W 123°03'0 0.0
2017-Nov-07 22:23N 38°20' W 123°03'0 0.0
2017-Nov-07 21:59N 38°20' W 123°03'0 0.0
2017-Nov-07 21:29N 38°20' W 123°03'0 0.0
2017-Nov-07 20:59N 38°20' W 123°03'0 0.0
2017-Nov-07 20:29N 38°20' W 123°03'0 0.0
2017-Nov-07 19:59N 38°20' W 123°03'0 0.0
2017-Nov-07 19:29N 38°20' W 123°03'0 0.0
2017-Nov-07 18:59N 38°20' W 123°03'0 0.0
2017-Nov-07 18:29N 38°20' W 123°03'0 0.0
2017-Nov-07 17:59N 38°20' W 123°03'0 0.0
2017-Nov-07 17:29N 38°20' W 123°03'0 0.0
2017-Nov-07 16:59N 38°20' W 123°03'0 0.0
2017-Nov-07 16:29N 38°20' W 123°03'0 0.0
2017-Nov-07 15:59N 38°20' W 123°03'0 0.0
2017-Nov-07 15:23N 38°20' W 123°03'0 0.0
2017-Nov-07 14:59N 38°20' W 123°03'0 0.0
2017-Nov-07 14:23N 38°20' W 123°03'0 0.0
2017-Nov-07 13:53N 38°20' W 123°03'0 0.0
2017-Nov-07 13:17N 38°20' W 123°03'0 0.0
2017-Nov-07 12:59N 38°20' W 123°03'0 0.0
2017-Nov-07 12:29N 38°20' W 123°03'0 0.0
2017-Nov-07 11:59N 38°20' W 123°03'0 0.0
2017-Nov-07 11:23N 38°20' W 123°03'0 0.0
2017-Nov-07 10:59N 38°20' W 123°03'0 0.0
2017-Nov-07 10:29N 38°20' W 123°03'0 0.0
2017-Nov-07 09:41N 38°20' W 123°03'0 0.0
2017-Nov-07 09:29N 38°20' W 123°03'0 0.0
2017-Nov-07 08:59N 38°20' W 123°03'0 0.0
2017-Nov-07 08:23N 38°20' W 123°03'0 0.0
2017-Nov-07 07:59N 38°20' W 123°03'0 0.0
2017-Nov-07 07:23N 38°20' W 123°03'0 0.0
2017-Nov-07 06:59N 38°20' W 123°03'0 0.0
2017-Nov-07 06:29N 38°20' W 123°03'0 0.0
2017-Nov-07 05:59N 38°20' W 123°03'0 0.0
2017-Nov-07 05:29N 38°20' W 123°03'0 0.0
2017-Nov-07 04:59N 38°20' W 123°03'0 0.0
2017-Nov-07 04:29N 38°20' W 123°03'0 0.0
2017-Nov-07 03:59N 38°20' W 123°03'0 0.0
2017-Nov-07 03:29N 38°20' W 123°03'0 0.0
2017-Nov-07 02:56N 38°20' W 123°03'0 0.0
2017-Nov-07 02:26N 38°20' W 123°03'0 0.0
2017-Nov-07 01:56N 38°20' W 123°03'0 0.0
2017-Nov-07 01:20N 38°20' W 123°03'0 0.0
2017-Nov-07 00:59N 38°20' W 123°03'0 0.0
2017-Nov-07 00:23N 38°20' W 123°03'0 0.0
2017-Nov-06 23:59N 38°20' W 123°03'0 0.0
2017-Nov-06 23:23N 38°20' W 123°03'0 0.0
2017-Nov-06 22:53N 38°20' W 123°03'0 0.0
2017-Nov-06 22:29N 38°20' W 123°03'0 0.0
2017-Nov-06 21:56N 38°20' W 123°03'0 0.0
2017-Nov-06 21:26N 38°20' W 123°03'0 0.0
2017-Nov-06 20:53N 38°20' W 123°03'0 0.0
2017-Nov-06 20:14N 38°20' W 123°03'  

Dump ship's entire track history